Terminal Aerodrome Forecast
Issued by NWS Greer, SC

Home | Current Version | Previous Version | Text Only | Print | Product List | Glossary On
Versions: 1 2 3 4 5 6 7 8 9 10 11 12 13 14 15 16 17
202
FTUS42 KGSP 131331 AAA
TAFGSP
TAF AMD
KGSP 131331Z 1314/1412 35008KT P6SM FEW250
      TEMPO 1314/1318 01010G19KT
     FM140600 03004KT P6SM SCT150
     FM141000 06004KT P6SM BKN090=

USA.gov is the U.S. government's official web portal to all federal, state and local government web resources and services.